Canton, MO (63435)

6:16 AM CDT on September 01, 2015 (GMT -0500)
HADS | | Change Station
CLOSE
Current Station
Personal Weather Station
Location: Canton, MO
Elevation: 490 ft
Nearby Weather Stations

Elev 490 ft 40.16 °N, 91.52 °W | Updated 46 minutes ago

Clear
Clear
73.0 °F
Feels Like 73.0 °F
N
2.0
Wind Variable Wind from SSE
Gusts 3.0 mph

Today
High -- | Low -- °F
--% Chance of Precip.
Yesterday
High -- | Low -- °F
Precip. -- in
6:33 AM 7:38 PM
Waning Gibbous, 89% visible
Pressure 30.03 in
Visibility 6.0 miles
Clouds Clear
Dew Point Not available.
Humidity Not available.
Rainfall in
Snow Depth Not available.
UV 0 out of 12
Pollen 10.80 out of 12
Air Quality Not available.
Flu Activity Not available.
METAR KUIN 011054Z AUTO 20007KT 6SM BR CLR 22/21 A3005 RMK AO2 SLP168 T02220206
Pressure 30.03 in
Visibility 6.0 miles
Clouds Clear
Dew Point Not available.
Humidity Not available.
Rainfall in
Snow Depth Not available.
UV 0 out of 12
Pollen 10.80 out of 12
Air Quality Not available.
Flu Activity Not available.
METAR KUIN 011054Z AUTO 20007KT 6SM BR CLR 22/21 A3005 RMK AO2 SLP168 T02220206

10-Day Weather Forecast

×

Almanac

Astronomy

Sep. 01, 2015 Rise Set
Actual Time
Civil Twilight
Nautical Twilight
Astronomical Twilight
Moon
Length of Visible Light
Length of Day
Tomorrow will be .
, % of the Moon is Illuminated

Today's Extremes

State Highs State Lows

Community

WunderPhotos

Upload Photos

1,851,501 photos uploaded!

WunderBlogs® & News

Nearby

Air Quality

  Air Quality AQ Index Pollutant
Not available.

Snow Depth

Station Depth Elevation

Earthquake Activity

City Distance Mag. Time & Date
Minimum magnitude displayed is 2.5.

Coastal Water Temperatures

Place Temperature

Stations

Nearby Weather Stations

Station Location Temp. Windchill Dew Point Humidity Wind Precip. Elev Updated Type